Time;durP1;ratioP1;P1;durP2;ratioP2;P2;SDS_P1;SDS_P2;PMS_P1;PMS_P2;Temp;Humidity;BMP_temperature;BMP_pressure;BME280_temperature;BME280_humidity;BME280_pressure;Samples;Min_cycle;Max_cycle;Signal;HPM_P1;HPM_P2
2022/01/20 00:00:03;;;;;;;9.70;7.72;;;;;;;4.90;100.00;100170.78;5056719;28;20194;-77
2022/01/20 00:02:34;;;;;;;13.32;8.27;;;;;;;4.96;100.00;100179.50;5051169;28;20185;-77
2022/01/20 00:05:11;;;;;;;10.73;7.97;;;;;;;5.05;100.00;100173.06;5057294;28;20215;-78
2022/01/20 00:08:00;;;;;;;9.60;7.60;;;;;;;5.06;100.00;100171.25;5065615;28;20220;-78
2022/01/20 00:26:53;;;;;;;8.68;7.35;;;;;;;5.36;100.00;100186.47;5061858;28;20197;-77
2022/01/20 00:29:30;;;;;;;10.07;8.05;;;;;;;5.46;100.00;100181.72;5056540;28;20186;-78
2022/01/20 00:32:07;;;;;;;9.88;8.23;;;;;;;5.44;100.00;100191.59;5059097;28;20280;-77
2022/01/20 00:37:18;;;;;;;9.90;8.00;;;;;;;5.37;100.00;100193.53;5062734;28;20180;-78
2022/01/20 00:39:46;;;;;;;9.77;8.15;;;;;;;5.44;100.00;100188.91;5064070;28;20204;-77
2022/01/20 00:42:15;;;;;;;8.50;6.85;;;;;;;5.25;100.00;100195.69;5055782;28;20530;-77
2022/01/20 00:44:41;;;;;;;8.55;6.53;;;;;;;5.28;100.00;100201.81;5068703;28;20190;-77
2022/01/20 00:47:08;;;;;;;8.18;6.38;;;;;;;5.38;100.00;100202.44;5062793;28;20288;-77
2022/01/20 00:49:35;;;;;;;7.30;6.30;;;;;;;5.47;100.00;100196.81;5064775;28;20694;-77
2022/01/20 00:52:02;;;;;;;9.18;7.43;;;;;;;5.52;100.00;100189.59;5056753;28;20687;-78
2022/01/20 00:54:29;;;;;;;7.93;6.43;;;;;;;5.47;100.00;100196.81;5056787;28;20217;-77
2022/01/20 00:56:57;;;;;;;9.35;6.43;;;;;;;5.44;100.00;100195.13;5057782;28;20201;-77
2022/01/20 00:59:25;;;;;;;8.88;6.70;;;;;;;5.33;100.00;100196.34;5058260;28;20201;-77
2022/01/20 01:01:53;;;;;;;8.80;6.32;;;;;;;5.30;100.00;100207.97;5058870;28;20194;-77
2022/01/20 01:04:19;;;;;;;8.48;6.70;;;;;;;5.23;100.00;100204.59;5063592;28;20277;-77
2022/01/20 01:07:08;;;;;;;8.75;7.72;;;;;;;5.15;100.00;100213.72;5061540;28;20193;-77
2022/01/20 01:09:37;;;;;;;10.68;7.35;;;;;;;5.17;100.00;100201.22;5069645;28;20189;-77
2022/01/20 01:12:08;;;;;;;8.73;6.95;;;;;;;5.14;100.00;100210.19;5063367;28;20274;-77
2022/01/20 01:14:35;;;;;;;8.75;6.93;;;;;;;5.17;100.00;100204.75;5065991;28;20291;-77
2022/01/20 01:20:14;;;;;;;10.15;7.03;;;;;;;5.03;100.00;100214.91;5064814;28;20274;-77
2022/01/20 01:22:41;;;;;;;8.85;6.90;;;;;;;5.04;100.00;100203.31;5070939;28;20276;-77
2022/01/20 01:25:09;;;;;;;9.02;7.30;;;;;;;5.12;100.00;100208.47;5071930;28;20620;-77
2022/01/20 01:27:40;;;;;;;9.32;7.03;;;;;;;4.98;100.00;100208.84;5065011;28;20239;-77
2022/01/20 01:30:19;;;;;;;9.90;7.32;;;;;;;5.00;100.00;100201.66;5067206;28;20213;-77
2022/01/20 01:32:50;;;;;;;9.02;7.72;;;;;;;5.07;100.00;100210.41;5067268;28;20197;-77
2022/01/20 01:35:20;;;;;;;8.45;6.95;;;;;;;5.20;100.00;100210.03;5068819;28;20197;-77
2022/01/20 01:40:32;;;;;;;10.65;8.02;;;;;;;5.24;100.00;100210.81;5060250;28;20196;-77
2022/01/20 01:43:05;;;;;;;11.63;8.95;;;;;;;5.43;100.00;100208.53;5066471;28;20182;-77
2022/01/20 01:45:35;;;;;;;10.45;7.18;;;;;;;5.25;100.00;100209.03;5060016;28;20616;-77
2022/01/20 01:48:03;;;;;;;10.68;8.10;;;;;;;5.36;100.00;100204.25;5071542;28;20226;-77
2022/01/20 01:50:30;;;;;;;11.02;8.70;;;;;;;5.40;100.00;100201.50;5058385;28;20605;-77
2022/01/20 01:52:59;;;;;;;10.27;8.50;;;;;;;5.32;100.00;100199.94;5058220;28;20269;-77
2022/01/20 01:55:26;;;;;;;14.23;8.35;;;;;;;5.31;100.00;100193.69;5061349;28;20296;-77
2022/01/20 01:57:53;;;;;;;10.55;8.30;;;;;;;5.39;100.00;100205.06;5066264;28;20242;-77
2022/01/20 02:00:21;;;;;;;11.15;8.35;;;;;;;5.36;100.00;100220.28;5072024;28;20273;-77
2022/01/20 02:02:48;;;;;;;10.63;7.85;;;;;;;5.12;100.00;100221.81;5064015;28;20191;-77
2022/01/20 02:05:17;;;;;;;9.10;7.97;;;;;;;5.39;100.00;100221.09;5056336;28;20243;-77
2022/01/20 02:18:47;;;;;;;14.30;10.07;;;;;;;5.03;100.00;100222.94;5065053;28;20196;-77
2022/01/20 02:21:15;;;;;;;15.20;9.80;;;;;;;5.10;100.00;100223.66;5070097;28;20185;-77
2022/01/20 02:23:42;;;;;;;15.90;11.50;;;;;;;4.93;100.00;100227.63;5062181;28;20284;-77
2022/01/20 02:26:09;;;;;;;15.65;10.85;;;;;;;4.98;100.00;100220.38;5063776;28;20290;-77
2022/01/20 02:28:36;;;;;;;15.75;11.52;;;;;;;5.01;100.00;100224.75;5056134;28;20189;-77
2022/01/20 02:31:04;;;;;;;18.63;12.63;;;;;;;5.01;100.00;100220.28;5055854;28;20281;-77
2022/01/20 02:33:31;;;;;;;17.05;12.85;;;;;;;4.94;100.00;100216.03;5063939;28;20186;-77
2022/01/20 02:36:01;;;;;;;16.48;12.35;;;;;;;4.96;100.00;100216.00;5060429;28;20623;-76
2022/01/20 02:38:35;;;;;;;17.83;13.38;;;;;;;4.91;100.00;100223.25;5065286;28;20201;-76
2022/01/20 02:46:31;;;;;;;21.08;14.25;;;;;;;4.90;100.00;100209.00;5071151;28;20239;-77
2022/01/20 02:48:58;;;;;;;16.17;12.82;;;;;;;5.03;100.00;100212.25;5066695;28;20311;-77
2022/01/20 02:51:25;;;;;;;18.80;13.00;;;;;;;4.87;100.00;100216.22;5062981;28;20210;-77
2022/01/20 02:53:53;;;;;;;17.13;13.10;;;;;;;4.79;100.00;100219.97;5061481;28;20217;-77
2022/01/20 02:56:20;;;;;;;20.48;13.25;;;;;;;4.74;100.00;100211.19;5058927;28;20618;-77
2022/01/20 02:58:47;;;;;;;17.77;13.40;;;;;;;4.87;100.00;100200.22;5064320;28;20272;-77
2022/01/20 03:01:14;;;;;;;18.10;13.95;;;;;;;4.78;100.00;100196.84;5064335;28;20277;-77
2022/01/20 03:03:41;;;;;;;19.13;12.70;;;;;;;4.88;100.00;100213.50;5057445;28;20210;-77
2022/01/20 03:06:08;;;;;;;20.23;13.75;;;;;;;4.86;100.00;100214.47;5055412;28;20193;-77
2022/01/20 03:08:35;;;;;;;19.80;13.70;;;;;;;4.92;100.00;100214.31;5070800;28;20222;-77
2022/01/20 03:11:03;;;;;;;19.20;13.23;;;;;;;5.11;100.00;100215.63;5055449;28;20204;-78
2022/01/20 03:13:30;;;;;;;18.27;12.80;;;;;;;5.12;100.00;100222.69;5050335;28;20193;-78
2022/01/20 03:15:57;;;;;;;20.80;12.23;;;;;;;4.95;100.00;100217.81;5062740;28;20296;-78
2022/01/20 03:18:23;;;;;;;17.42;12.63;;;;;;;4.87;100.00;100222.44;5058195;28;20666;-78
2022/01/20 03:20:50;;;;;;;19.48;12.75;;;;;;;4.98;100.00;100224.84;5060653;28;20679;-78
2022/01/20 03:23:16;;;;;;;17.60;12.02;;;;;;;5.06;100.00;100220.16;5061819;28;20232;-78
2022/01/20 03:25:43;;;;;;;15.98;10.90;;;;;;;4.88;100.00;100218.84;5055897;28;20280;-78
2022/01/20 03:28:11;;;;;;;15.48;10.63;;;;;;;4.76;100.00;100230.69;5061382;28;20281;-78
2022/01/20 03:30:38;;;;;;;18.15;12.52;;;;;;;4.79;100.00;100222.63;5057629;28;20198;-78
2022/01/20 03:33:05;;;;;;;20.77;12.07;;;;;;;4.77;100.00;100226.22;5064584;28;20622;-78
2022/01/20 03:35:32;;;;;;;19.80;12.82;;;;;;;4.67;100.00;100232.72;5055526;28;20216;-78
2022/01/20 03:37:59;;;;;;;16.40;12.30;;;;;;;4.52;100.00;100237.50;5067355;28;20551;-77
2022/01/20 03:40:25;;;;;;;17.00;12.35;;;;;;;4.53;100.00;100238.38;5066153;28;20587;-77
2022/01/20 03:42:52;;;;;;;18.33;13.60;;;;;;;4.56;100.00;100241.84;5065465;28;20280;-78
2022/01/20 03:45:24;;;;;;;20.90;12.07;;;;;;;4.44;100.00;100225.25;5056477;28;20247;-78
2022/01/20 03:47:54;;;;;;;20.08;12.88;;;;;;;4.57;100.00;100237.41;5065446;28;20768;-78
2022/01/20 03:53:05;;;;;;;19.48;12.93;;;;;;;4.37;100.00;100232.53;5053726;28;20189;-78
2022/01/20 03:55:32;;;;;;;25.73;13.57;;;;;;;4.24;100.00;100234.56;5063422;28;20228;-78
2022/01/20 03:57:59;;;;;;;24.83;12.45;;;;;;;4.36;100.00;100234.31;5063631;28;20196;-78
2022/01/20 04:00:27;;;;;;;19.83;13.63;;;;;;;4.44;100.00;100243.94;5063001;28;20635;-78
2022/01/20 04:02:53;;;;;;;18.05;12.43;;;;;;;4.34;100.00;100254.81;5054554;28;20285;-78
2022/01/20 04:05:20;;;;;;;19.20;13.10;;;;;;;4.23;100.00;100259.50;5065844;28;20189;-78
2022/01/20 04:07:47;;;;;;;21.25;12.95;;;;;;;4.52;100.00;100253.53;5069659;28;20470;-76
2022/01/20 04:10:13;;;;;;;22.88;12.90;;;;;;;4.30;100.00;100265.56;5058711;28;20193;-76
2022/01/20 04:12:40;;;;;;;20.65;13.90;;;;;;;4.32;100.00;100255.72;5054933;28;20225;-77
2022/01/20 04:15:09;;;;;;;24.70;14.45;;;;;;;4.13;100.00;100266.78;5061799;28;20315;-77
2022/01/20 04:17:41;;;;;;;21.35;13.98;;;;;;;4.08;100.00;100273.13;5062024;28;20190;-76
2022/01/20 04:20:09;;;;;;;25.23;13.93;;;;;;;4.14;100.00;100268.56;5062164;28;20183;-76
2022/01/20 04:22:36;;;;;;;24.23;15.40;;;;;;;4.17;100.00;100267.63;5062427;28;20559;-76
2022/01/20 04:25:04;;;;;;;24.30;14.65;;;;;;;4.23;100.00;100266.59;5065077;28;20270;-76
2022/01/20 04:27:31;;;;;;;21.50;13.40;;;;;;;4.11;100.00;100265.94;5064618;28;20193;-76
2022/01/20 04:29:57;;;;;;;25.08;14.32;;;;;;;4.06;100.00;100264.28;5062926;28;20559;-76
2022/01/20 04:32:24;;;;;;;24.92;13.35;;;;;;;4.21;100.00;100266.66;5067515;28;20215;-77
2022/01/20 04:34:54;;;;;;;23.88;14.30;;;;;;;4.19;100.00;100273.78;5052593;28;20209;-76
2022/01/20 04:37:21;;;;;;;21.00;13.73;;;;;;;4.12;100.00;100288.16;5067463;28;20200;-77
2022/01/20 04:39:50;;;;;;;20.60;12.82;;;;;;;4.04;100.00;100279.44;5064495;28;20520;-77
2022/01/20 04:42:18;;;;;;;19.25;13.48;;;;;;;4.21;100.00;100279.09;5063398;28;20190;-77
2022/01/20 04:44:50;;;;;;;28.05;15.07;;;;;;;4.20;100.00;100282.66;5062604;28;20622;-77
2022/01/20 04:47:32;;;;;;;22.67;13.13;;;;;;;4.33;100.00;100279.69;5063767;28;20186;-77
2022/01/20 04:58:14;;;;;;;21.15;13.43;;;;;;;3.89;100.00;100259.28;5055348;28;20237;-77
2022/01/20 05:00:41;;;;;;;18.98;12.52;;;;;;;3.93;100.00;100264.56;5052468;28;20277;-77
2022/01/20 05:03:07;;;;;;;26.92;14.80;;;;;;;4.02;100.00;100263.47;5061490;28;20664;-77
2022/01/20 05:05:35;;;;;;;21.10;13.75;;;;;;;3.94;100.00;100260.97;5059609;28;20191;-77
2022/01/20 05:08:02;;;;;;;26.35;16.45;;;;;;;3.91;100.00;100261.06;5072567;28;20194;-76
2022/01/20 05:10:31;;;;;;;21.17;13.13;;;;;;;3.94;100.00;100247.66;5060458;28;20217;-77
2022/01/20 05:13:12;;;;;;;21.70;13.15;;;;;;;4.20;100.00;100246.22;5053123;28;20197;-77
2022/01/20 05:15:43;;;;;;;23.77;12.85;;;;;;;4.14;100.00;100257.03;5054696;28;20257;-77
2022/01/20 05:18:10;;;;;;;23.92;13.00;;;;;;;4.25;100.00;100249.69;5053703;28;20197;-77
2022/01/20 05:20:38;;;;;;;22.60;12.23;;;;;;;4.20;100.00;100246.22;5060272;28;20280;-76
2022/01/20 05:23:05;;;;;;;19.17;11.27;;;;;;;4.03;100.00;100233.25;5058113;28;20191;-77
2022/01/20 05:25:31;;;;;;;18.98;12.05;;;;;;;3.90;100.00;100247.75;5056222;28;20225;-76
2022/01/20 05:27:58;;;;;;;20.45;12.18;;;;;;;3.95;100.00;100251.19;5057902;28;20224;-77
2022/01/20 05:30:25;;;;;;;22.70;11.70;;;;;;;3.74;100.00;100258.69;5062184;28;20225;-77
2022/01/20 05:32:51;;;;;;;27.55;13.55;;;;;;;3.84;100.00;100254.06;5055169;28;20600;-77
2022/01/20 05:35:18;;;;;;;19.33;10.90;;;;;;;3.62;100.00;100252.72;5060023;28;20237;-76
2022/01/20 05:37:46;;;;;;;19.15;10.60;;;;;;;3.72;100.00;100257.84;5063982;28;20728;-76
2022/01/20 05:40:13;;;;;;;17.98;11.95;;;;;;;3.64;100.00;100265.13;5065201;28;20282;-76
2022/01/20 05:42:40;;;;;;;17.38;10.52;;;;;;;3.46;100.00;100278.75;5063413;28;20186;-76
2022/01/20 05:45:08;;;;;;;15.27;11.32;;;;;;;3.30;100.00;100272.84;5064129;28;20197;-76
2022/01/20 05:47:42;;;;;;;22.15;11.77;;;;;;;3.46;100.00;100274.34;5060273;28;20194;-76
2022/01/20 05:50:09;;;;;;;17.65;11.30;;;;;;;3.57;100.00;100265.25;5059272;28;20184;-77
2022/01/20 05:52:41;;;;;;;18.42;10.77;;;;;;;3.48;100.00;100272.53;5070808;28;20556;-77
2022/01/20 05:55:11;;;;;;;22.00;11.10;;;;;;;3.71;100.00;100274.75;5056465;28;20594;-78
2022/01/20 05:57:38;;;;;;;18.35;12.00;;;;;;;3.58;100.00;100275.03;5061140;28;20195;-78
2022/01/20 06:00:06;;;;;;;18.83;11.40;;;;;;;3.39;100.00;100272.66;5063592;28;20267;-78
2022/01/20 06:02:36;;;;;;;18.23;11.43;;;;;;;3.25;100.00;100277.38;5057185;28;20272;-77
2022/01/20 06:05:03;;;;;;;25.17;11.10;;;;;;;3.31;100.00;100278.16;5069003;28;20637;-77
2022/01/20 06:07:30;;;;;;;18.58;11.10;;;;;;;3.47;100.00;100286.72;5057122;28;20290;-78
2022/01/20 06:09:56;;;;;;;23.05;12.45;;;;;;;3.30;100.00;100283.47;5064082;28;20225;-77
2022/01/20 06:12:24;;;;;;;21.90;12.82;;;;;;;3.39;100.00;100293.09;5063975;28;20236;-77
2022/01/20 06:14:51;;;;;;;27.52;13.65;;;;;;;3.13;100.00;100294.44;5072318;28;20274;-78
2022/01/20 06:17:26;;;;;;;22.65;12.82;;;;;;;3.10;100.00;100297.16;5065987;28;20248;-76
2022/01/20 06:19:52;;;;;;;21.27;13.30;;;;;;;3.11;100.00;100302.44;5066136;28;20208;-77
2022/01/20 06:22:19;;;;;;;20.40;13.52;;;;;;;3.28;100.00;100295.97;5063589;28;20284;-77
2022/01/20 06:24:46;;;;;;;21.33;12.13;;;;;;;3.12;100.00;100290.91;5063392;28;20212;-79
2022/01/20 06:27:13;;;;;;;24.83;12.98;;;;;;;3.18;100.00;100297.88;5062397;28;20202;-75
2022/01/20 06:29:41;;;;;;;21.35;11.73;;;;;;;3.08;100.00;100293.63;5055162;28;20236;-77
2022/01/20 06:32:08;;;;;;;20.25;10.98;;;;;;;3.15;100.00;100292.63;5061548;28;20204;-77
2022/01/20 06:34:35;;;;;;;17.35;11.20;;;;;;;3.13;100.00;100286.44;5066886;28;20265;-76
2022/01/20 06:37:02;;;;;;;16.42;11.27;;;;;;;3.21;100.00;100286.31;5070862;28;20209;-76
2022/01/20 06:39:29;;;;;;;21.30;10.90;;;;;;;3.30;100.00;100296.78;5065649;28;20537;-76
2022/01/20 06:41:55;;;;;;;23.17;14.00;;;;;;;3.40;100.00;100295.75;5066590;28;20193;-75
2022/01/20 06:44:22;;;;;;;20.33;13.43;;;;;;;3.09;100.00;100300.69;5070357;28;20217;-76
2022/01/20 06:46:50;;;;;;;22.42;13.10;;;;;;;3.07;100.00;100308.69;5067995;28;20637;-77
2022/01/20 06:49:19;;;;;;;25.20;14.73;;;;;;;3.16;100.00;100318.31;5067042;28;20605;-75
2022/01/20 06:51:46;;;;;;;15.10;10.20;;;;;;;3.06;100.00;100320.25;5056975;28;20189;-74
2022/01/20 06:54:13;;;;;;;19.73;11.13;;;;;;;3.09;100.00;100312.22;5058509;28;20672;-75
2022/01/20 06:56:41;;;;;;;21.27;12.25;;;;;;;3.06;100.00;100322.06;5064953;28;20293;-74
2022/01/20 06:59:08;;;;;;;19.50;11.52;;;;;;;3.11;100.00;100325.50;5062002;28;20212;-74
2022/01/20 07:01:35;;;;;;;21.40;10.77;;;;;;;3.26;100.00;100329.72;5053427;28;20677;-74
2022/01/20 07:04:04;;;;;;;20.25;10.32;;;;;;;3.17;100.00;100327.22;5061378;28;20604;-74
2022/01/20 07:06:31;;;;;;;26.35;10.60;;;;;;;3.05;100.00;100309.63;5061427;28;20703;-75
2022/01/20 07:08:58;;;;;;;15.18;10.40;;;;;;;3.12;100.00;100316.59;5061708;28;20548;-74
2022/01/20 07:11:25;;;;;;;15.82;9.38;;;;;;;3.00;100.00;100317.69;5064890;28;20284;-75
2022/01/20 07:13:52;;;;;;;26.30;10.90;;;;;;;3.32;100.00;100314.53;5057502;28;20225;-75
2022/01/20 07:16:18;;;;;;;24.23;11.52;;;;;;;3.28;100.00;100320.81;5053582;28;20304;-74
2022/01/20 07:18:45;;;;;;;20.38;10.07;;;;;;;2.94;100.00;100333.78;5063449;28;20276;-76
2022/01/20 07:21:14;;;;;;;23.80;10.82;;;;;;;2.98;100.00;100332.78;5061655;28;20639;-76
2022/01/20 07:23:40;;;;;;;16.08;10.27;;;;;;;2.88;100.00;100344.50;5059894;28;20280;-74
2022/01/20 07:26:07;;;;;;;21.65;9.80;;;;;;;2.90;100.00;100348.00;5067020;28;20292;-75
2022/01/20 07:28:34;;;;;;;19.08;10.00;;;;;;;3.04;100.00;100361.09;5059683;28;20289;-75
2022/01/20 07:31:00;;;;;;;17.02;10.27;;;;;;;3.34;100.00;100365.94;5062208;28;20225;-75
2022/01/20 07:33:27;;;;;;;26.52;10.70;;;;;;;3.34;100.00;100370.38;5064485;28;20241;-75
2022/01/20 07:35:54;;;;;;;24.10;10.23;;;;;;;3.32;100.00;100377.50;5054441;28;20248;-75
2022/01/20 07:38:23;;;;;;;16.23;10.48;;;;;;;3.35;100.00;100380.16;5066140;28;20219;-74
2022/01/20 07:40:49;;;;;;;21.95;10.75;;;;;;;3.54;100.00;100373.59;5063845;28;20209;-75
2022/01/20 07:43:16;;;;;;;24.55;12.10;;;;;;;3.42;100.00;100378.25;5064638;28;20609;-75
2022/01/20 07:45:43;;;;;;;24.40;12.18;;;;;;;3.34;100.00;100383.69;5063540;28;20655;-75
2022/01/20 07:48:09;;;;;;;21.58;12.05;;;;;;;3.20;100.00;100383.03;5058670;28;20265;-76
2022/01/20 07:50:36;;;;;;;26.67;11.30;;;;;;;3.44;100.00;100387.09;5052578;28;20668;-75
2022/01/20 07:53:04;;;;;;;23.90;11.93;;;;;;;3.36;100.00;100387.22;5058881;28;20284;-76
2022/01/20 07:55:32;;;;;;;25.77;12.30;;;;;;;3.37;100.00;100388.09;5070876;28;20628;-76
2022/01/20 07:57:59;;;;;;;29.60;12.88;;;;;;;3.46;100.00;100396.81;5053401;28;20587;-76
2022/01/20 08:00:26;;;;;;;19.45;10.88;;;;;;;3.45;100.00;100397.72;5032404;28;20253;-76
2022/01/20 08:02:53;;;;;;;24.85;11.82;;;;;;;3.47;100.00;100395.91;5032519;28;20270;-75
2022/01/20 08:05:20;;;;;;;25.67;13.68;;;;;;;3.37;100.00;100402.31;5059841;28;20217;-75
2022/01/20 08:07:48;;;;;;;19.95;12.40;;;;;;;3.43;100.00;100403.97;5072524;28;20193;-76
2022/01/20 08:10:15;;;;;;;27.20;12.60;;;;;;;3.43;100.00;100396.84;5072603;28;20673;-76
2022/01/20 08:12:44;;;;;;;17.98;11.32;;;;;;;3.37;100.00;100396.06;5070911;28;20228;-76
2022/01/20 08:15:12;;;;;;;24.90;11.30;;;;;;;3.49;100.00;100394.09;5064458;28;20323;-76
2022/01/20 08:17:39;;;;;;;23.50;11.35;;;;;;;3.51;100.00;100394.09;5072440;28;20205;-76
2022/01/20 08:20:08;;;;;;;26.98;11.52;;;;;;;3.49;100.00;100388.78;5054046;28;20197;-76
2022/01/20 08:22:35;;;;;;;33.75;12.40;;;;;;;3.65;100.00;100393.84;5051306;28;20620;-76
2022/01/20 08:25:02;;;;;;;23.25;12.55;;;;;;;3.64;100.00;100392.06;5052502;28;20280;-75
2022/01/20 08:27:28;;;;;;;21.48;11.75;;;;;;;3.59;100.00;100392.16;5052163;28;20285;-76
2022/01/20 08:29:57;;;;;;;22.30;10.48;;;;;;;3.66;100.00;100400.91;5052300;28;20220;-76
2022/01/20 08:32:23;;;;;;;23.30;12.10;;;;;;;3.70;100.00;100405.28;5061532;28;20186;-76
2022/01/20 08:34:50;;;;;;;22.27;11.35;;;;;;;3.75;100.00;100408.75;5066093;28;20198;-76
2022/01/20 08:37:17;;;;;;;22.55;11.52;;;;;;;3.70;100.00;100422.16;5051757;28;20241;-76
2022/01/20 08:39:45;;;;;;;17.50;10.30;;;;;;;3.62;100.00;100410.75;5052275;28;20209;-76
2022/01/20 08:42:12;;;;;;;23.17;11.80;;;;;;;3.76;100.00;100427.38;5051737;28;20512;-75
2022/01/20 08:44:40;;;;;;;19.55;10.60;;;;;;;3.63;100.00;100430.28;5051721;28;20259;-75
2022/01/20 08:47:16;;;;;;;24.35;10.38;;;;;;;3.70;100.00;100430.13;5051940;28;20288;-76
2022/01/20 08:49:43;;;;;;;20.73;11.05;;;;;;;3.80;100.00;100422.88;5051180;28;20245;-75
2022/01/20 08:52:09;;;;;;;26.33;10.60;;;;;;;3.78;100.00;100427.38;5051386;28;20244;-77
2022/01/20 08:54:38;;;;;;;19.60;10.05;;;;;;;3.80;100.00;100422.00;5059711;28;20281;-76
2022/01/20 08:57:05;;;;;;;22.77;10.63;;;;;;;3.84;100.00;100418.38;5071126;28;20220;-75
2022/01/20 08:59:32;;;;;;;21.42;10.25;;;;;;;4.00;100.00;100419.84;5050373;28;20194;-75
2022/01/20 09:02:02;;;;;;;19.23;10.30;;;;;;;4.25;100.00;100414.06;5051941;28;20239;-75
2022/01/20 09:04:30;;;;;;;19.23;9.40;;;;;;;3.87;100.00;100413.88;5051693;28;20202;-75
2022/01/20 09:06:57;;;;;;;23.48;10.55;;;;;;;3.86;100.00;100414.78;5055469;28;20180;-74
2022/01/20 09:09:23;;;;;;;19.23;9.90;;;;;;;3.70;100.00;100419.47;5060652;28;20663;-75
2022/01/20 09:12:15;;;;;;;17.50;10.73;;;;;;;3.72;100.00;100427.47;5071755;28;20508;-76
2022/01/20 09:17:23;;;;;;;16.98;9.95;;;;;;;3.69;100.00;100423.06;5031507;28;20213;-76
2022/01/20 09:19:52;;;;;;;17.70;10.20;;;;;;;3.76;100.00;100423.84;5031458;28;20289;-74
2022/01/20 09:22:20;;;;;;;20.58;11.05;;;;;;;3.74;100.00;100423.84;5031941;28;20273;-76
2022/01/20 09:24:47;;;;;;;28.77;11.38;;;;;;;3.69;100.00;100419.53;5031318;28;20182;-75
2022/01/20 09:27:17;;;;;;;27.90;11.32;;;;;;;3.82;100.00;100426.41;5034892;28;20205;-76
2022/01/20 09:29:45;;;;;;;20.20;11.10;;;;;;;3.92;100.00;100413.78;5061637;28;20312;-74
2022/01/20 09:32:13;;;;;;;28.05;11.43;;;;;;;4.03;100.00;100418.94;5075435;28;20180;-77
2022/01/20 09:34:40;;;;;;;17.80;10.32;;;;;;;4.20;100.00;100424.81;5063912;28;20202;-76
2022/01/20 09:37:08;;;;;;;19.38;10.30;;;;;;;4.33;100.00;100414.81;5055585;28;20292;-76
2022/01/20 09:39:37;;;;;;;20.10;10.65;;;;;;;4.11;100.00;100417.00;5072883;28;20283;-76
2022/01/20 09:42:06;;;;;;;18.52;11.00;;;;;;;4.12;100.00;100419.66;5075533;28;20681;-75
2022/01/20 09:44:33;;;;;;;21.40;10.70;;;;;;;4.16;100.00;100421.34;5074016;28;20292;-76
2022/01/20 09:47:00;;;;;;;21.25;11.27;;;;;;;4.00;100.00;100421.63;5055035;28;20218;-76
2022/01/20 09:49:26;;;;;;;20.77;10.15;;;;;;;3.92;100.00;100430.66;5055281;28;20229;-76
2022/01/20 09:51:53;;;;;;;14.38;9.77;;;;;;;3.91;100.00;100428.91;5055776;28;20205;-75
2022/01/20 09:54:21;;;;;;;16.05;9.10;;;;;;;3.97;100.00;100427.91;5055042;28;20233;-75
2022/01/20 09:56:48;;;;;;;18.00;9.68;;;;;;;4.08;100.00;100431.25;5063057;28;20221;-76
2022/01/20 09:59:15;;;;;;;17.88;9.25;;;;;;;4.28;100.00;100436.22;5073033;28;20197;-75
2022/01/20 10:01:44;;;;;;;17.30;9.68;;;;;;;4.27;100.00;100450.44;5070718;28;20221;-75
2022/01/20 10:04:21;;;;;;;18.88;10.13;;;;;;;4.47;100.00;100454.53;5055074;28;20304;-76
2022/01/20 10:06:59;;;;;;;13.55;8.90;;;;;;;4.59;100.00;100455.19;5054722;28;20601;-77
2022/01/20 10:09:36;;;;;;;13.98;7.97;;;;;;;4.33;100.00;100453.00;5054757;28;20256;-75
2022/01/20 10:12:03;;;;;;;17.58;9.40;;;;;;;4.29;100.00;100455.75;5054816;28;20285;-75
2022/01/20 10:14:39;;;;;;;12.13;8.82;;;;;;;4.46;100.00;100466.13;5054855;28;20632;-76
2022/01/20 10:17:15;;;;;;;21.13;9.07;;;;;;;4.56;100.00;100465.88;5060075;28;20209;-76
2022/01/20 10:19:42;;;;;;;22.48;8.82;;;;;;;4.67;100.00;100459.47;5049060;28;20287;-76
2022/01/20 10:22:11;;;;;;;16.67;7.95;;;;;;;4.68;100.00;100467.47;5051465;28;20651;-75
2022/01/20 10:24:40;;;;;;;14.88;8.43;;;;;;;4.66;100.00;100465.72;5068289;28;20198;-76
2022/01/20 10:27:11;;;;;;;13.00;7.75;;;;;;;4.67;100.00;100470.16;5054279;28;20187;-75
2022/01/20 10:29:38;;;;;;;14.82;7.20;;;;;;;5.02;100.00;100469.44;5054427;28;20639;-75
2022/01/20 10:32:05;;;;;;;17.48;7.60;;;;;;;4.93;100.00;100462.50;5070072;28;20632;-75
2022/01/20 10:34:35;;;;;;;13.20;7.50;;;;;;;5.28;100.00;100462.63;5059806;28;20276;-75
2022/01/20 10:37:04;;;;;;;12.40;6.28;;;;;;;5.34;100.00;100465.16;5074082;28;20227;-76
2022/01/20 10:39:35;;;;;;;15.50;6.55;;;;;;;5.54;100.00;100462.91;5073652;28;20205;-75
2022/01/20 10:42:08;;;;;;;10.05;4.85;;;;;;;5.40;100.00;100467.66;5074114;28;20190;-76
2022/01/20 10:44:43;;;;;;;9.25;5.88;;;;;;;5.47;100.00;100465.75;5074282;28;20247;-76
2022/01/20 10:47:13;;;;;;;13.00;5.70;;;;;;;5.29;100.00;100467.03;5071701;28;20203;-75
2022/01/20 10:49:40;;;;;;;7.95;6.00;;;;;;;5.46;100.00;100455.97;5035830;28;20301;-75
2022/01/20 10:52:09;;;;;;;9.13;5.22;;;;;;;5.27;100.00;100455.50;5054097;28;20186;-76
2022/01/20 10:54:43;;;;;;;10.70;5.72;;;;;;;5.04;100.00;100456.03;5053808;28;20218;-76
2022/01/20 10:57:13;;;;;;;7.93;5.50;;;;;;;5.04;100.00;100456.91;5054649;28;20264;-76
2022/01/20 10:59:51;;;;;;;6.78;5.25;;;;;;;5.16;100.00;100450.44;5063014;28;20184;-75
2022/01/20 11:02:19;;;;;;;12.98;5.40;;;;;;;5.37;100.00;100446.38;5071437;28;20206;-76
2022/01/20 11:04:47;;;;;;;9.75;5.53;;;;;;;5.21;100.00;100449.41;5069591;28;20214;-76
2022/01/20 11:07:13;;;;;;;9.13;5.68;;;;;;;5.07;100.00;100456.84;5053430;28;20597;-75
2022/01/20 11:09:43;;;;;;;8.55;5.15;;;;;;;4.97;100.00;100442.81;5054900;28;20194;-77
2022/01/20 11:12:14;;;;;;;16.55;5.30;;;;;;;5.20;100.00;100431.66;5033894;28;20695;-76
2022/01/20 11:14:42;;;;;;;9.63;4.82;;;;;;;5.37;100.00;100425.91;5043189;28;20206;-76
2022/01/20 11:17:17;;;;;;;13.00;5.00;;;;;;;5.39;100.00;100429.41;5053728;28;20273;-76
2022/01/20 11:19:45;;;;;;;9.38;4.68;;;;;;;5.47;100.00;100426.53;5053458;28;20217;-77
2022/01/20 11:22:14;;;;;;;10.93;3.90;;;;;;;5.40;100.00;100431.19;5054885;28;20561;-75
2022/01/20 11:24:43;;;;;;;3.92;2.92;;;;;;;5.39;100.00;100428.53;5056285;28;20716;-75
2022/01/20 11:27:14;;;;;;;5.53;3.20;;;;;;;5.54;100.00;100443.31;5072473;28;20204;-76
2022/01/20 11:29:46;;;;;;;2.75;1.90;;;;;;;5.45;100.00;100455.13;5057031;28;20194;-76
2022/01/20 11:32:18;;;;;;;2.90;1.50;;;;;;;4.97;100.00;100457.94;5053251;28;20563;-76
2022/01/20 11:34:58;;;;;;;4.25;1.60;;;;;;;4.77;100.00;100461.94;5052758;28;20201;-77
2022/01/20 11:37:25;;;;;;;2.85;1.52;;;;;;;4.55;100.00;100472.16;5052954;28;20671;-76
2022/01/20 11:39:53;;;;;;;4.80;1.65;;;;;;;4.82;100.00;100475.19;5053854;28;20292;-76
2022/01/20 11:42:24;;;;;;;1.58;1.40;;;;;;;4.80;100.00;100477.00;5053898;28;20193;-76
2022/01/20 11:44:51;;;;;;;1.77;1.10;;;;;;;4.78;100.00;100484.16;5072406;28;20315;-75
2022/01/20 11:47:19;;;;;;;7.05;1.90;;;;;;;4.74;100.00;100477.13;5067013;28;20276;-75
2022/01/20 11:49:46;;;;;;;6.90;1.83;;;;;;;4.85;100.00;100484.91;5071265;28;20609;-77
2022/01/20 11:52:23;;;;;;;2.70;1.30;;;;;;;4.66;97.28;100471.94;5072318;28;20300;-76
2022/01/20 11:54:50;;;;;;;2.85;1.17;;;;;;;4.44;96.94;100471.47;5072600;28;20185;-77
2022/01/20 11:57:22;;;;;;;3.95;1.90;;;;;;;4.63;95.33;100472.00;5072181;28;20205;-76
2022/01/20 11:59:56;;;;;;;3.65;1.58;;;;;;;4.86;89.68;100457.28;5072679;28;20646;-76
2022/01/20 12:02:27;;;;;;;4.88;1.90;;;;;;;4.87;88.56;100446.59;5067327;28;20285;-76
2022/01/20 12:04:54;;;;;;;3.20;1.73;;;;;;;4.77;88.70;100456.59;5056778;28;20189;-76
2022/01/20 12:07:26;;;;;;;3.10;1.58;;;;;;;4.56;88.73;100457.88;5072801;28;20279;-76
2022/01/20 12:10:05;;;;;;;6.03;1.90;;;;;;;4.35;92.47;100461.00;5054103;28;20241;-76
2022/01/20 12:12:32;;;;;;;4.20;2.15;;;;;;;4.28;93.05;100459.34;5052442;28;20294;-76
2022/01/20 12:15:09;;;;;;;3.55;1.52;;;;;;;4.18;92.93;100456.84;5060252;28;20186;-76